Time;durP1;ratioP1;P1;durP2;ratioP2;P2;SDS_P1;SDS_P2;PMS_P1;PMS_P2;Temp;Humidity;BMP_temperature;BMP_pressure;BME280_temperature;BME280_humidity;BME280_pressure;Samples;Min_cycle;Max_cycle;Signal;HPM_P1;HPM_P2
2023/03/30 00:02:21;;;;;;;7.47;2.20;;;15.30;99.90;;;;;;10459347;28;20040;-27
2023/03/30 00:07:24;;;;;;;10.15;2.50;;;15.60;99.90;;;;;;10471544;28;20584;-24
2023/03/30 00:12:26;;;;;;;;;;;15.10;99.90;;;;;;10466953;28;20052;-25
2023/03/30 00:17:29;;;;;;;8.70;2.55;;;15.60;98.40;;;;;;10450957;28;20377;-24
2023/03/30 00:22:32;;;;;;;7.57;2.42;;;14.60;99.90;;;;;;10459459;28;20053;-26
2023/03/30 00:27:34;;;;;;;4.53;1.85;;;14.60;99.90;;;;;;10453288;28;20045;-24
2023/03/30 00:32:37;;;;;;;9.87;2.63;;;15.20;99.90;;;;;;10452015;28;20148;-24
2023/03/30 00:37:39;;;;;;;5.38;1.63;;;14.90;99.90;;;;;;10442416;28;20080;-24
2023/03/30 00:42:42;;;;;;;16.25;2.75;;;15.20;99.90;;;;;;10453706;28;20048;-24
2023/03/30 00:47:48;;;;;;;6.40;1.58;;;14.90;99.90;;;;;;10451538;28;20441;-23
2023/03/30 00:52:52;;;;;;;5.00;2.70;;;14.70;99.90;;;;;;10457003;28;20136;-23
2023/03/30 00:57:55;;;;;;;3.70;1.63;;;14.40;99.90;;;;;;10462220;28;20084;-22
2023/03/30 01:03:00;;;;;;;;;;;14.40;99.90;;;;;;10450176;28;20067;-25
2023/03/30 01:08:06;;;;;;;5.45;2.40;;;14.60;99.90;;;;;;10461368;28;19929;-24
2023/03/30 01:13:08;;;;;;;8.43;2.00;;;14.90;99.90;;;;;;10446196;28;20061;-25
2023/03/30 01:18:22;;;;;;;16.33;2.50;;;14.70;99.90;;;;;;10453188;28;20053;-25
2023/03/30 01:24:03;;;;;;;13.18;3.28;;;14.00;99.90;;;;;;10445071;28;20048;-24
2023/03/30 01:29:12;;;;;;;6.15;1.67;;;14.30;99.90;;;;;;10442619;28;20041;-23
2023/03/30 01:34:37;;;;;;;7.95;2.35;;;14.60;99.90;;;;;;10447099;28;20048;-24
2023/03/30 01:39:49;;;;;;;9.35;2.40;;;14.50;99.90;;;;;;10443202;28;20073;-24
2023/03/30 01:44:57;;;;;;;10.98;2.17;;;14.60;99.90;;;;;;10455317;28;20481;-24
2023/03/30 01:50:03;;;;;;;17.63;3.03;;;13.90;99.90;;;;;;10451155;28;20065;-24
2023/03/30 01:55:13;;;;;;;7.93;1.88;;;13.70;99.90;;;;;;10450791;28;20127;-26
2023/03/30 02:00:19;;;;;;;11.40;2.20;;;14.30;99.90;;;;;;10448094;28;20037;-25
2023/03/30 02:05:22;;;;;;;21.88;2.80;;;14.10;99.90;;;;;;10448411;28;20048;-24
2023/03/30 02:10:28;;;;;;;13.02;2.60;;;14.20;99.90;;;;;;10448035;28;20072;-25
2023/03/30 02:15:39;;;;;;;5.32;1.50;;;14.10;99.90;;;;;;10448074;28;20064;-24
2023/03/30 02:20:41;;;;;;;10.15;1.98;;;14.50;99.90;;;;;;10450420;28;20068;-24
2023/03/30 02:25:45;;;;;;;11.77;2.10;;;14.20;99.90;;;;;;10448132;28;20045;-24
2023/03/30 02:30:47;;;;;;;13.93;3.13;;;14.10;99.90;;;;;;10476247;28;20072;-24
2023/03/30 02:36:20;;;;;;;12.33;1.93;;;14.10;99.90;;;;;;10458466;28;20084;-25
2023/03/30 02:41:36;;;;;;;5.20;2.40;;;14.20;99.90;;;;;;10449656;28;20080;-24
2023/03/30 02:46:55;;;;;;;4.78;1.30;;;14.70;99.90;;;;;;10464035;28;20056;-25
2023/03/30 02:52:07;;;;;;;7.68;1.58;;;15.20;99.90;;;;;;10460936;28;20058;-24
2023/03/30 02:57:17;;;;;;;5.43;1.42;;;14.80;99.90;;;;;;10461083;28;20052;-24
2023/03/30 03:02:24;;;;;;;4.70;1.45;;;14.30;99.90;;;;;;10459032;28;20131;-23
2023/03/30 03:07:26;;;;;;;15.35;1.92;;;14.60;99.90;;;;;;10457343;28;20041;-24
2023/03/30 03:12:30;;;;;;;6.87;1.33;;;14.40;99.90;;;;;;10457651;28;20048;-24
2023/03/30 03:17:33;;;;;;;12.48;1.90;;;14.40;99.90;;;;;;10454461;28;20072;-24
2023/03/30 03:22:35;;;;;;;23.83;2.97;;;14.50;99.90;;;;;;10454687;28;20094;-25
2023/03/30 03:27:38;;;;;;;6.28;1.55;;;14.60;99.90;;;;;;10465615;28;20095;-25
2023/03/30 03:32:40;;;;;;;16.73;2.40;;;14.30;99.90;;;;;;10456085;28;20047;-24
2023/03/30 03:37:42;;;;;;;9.30;2.13;;;14.50;99.90;;;;;;10462632;28;20170;-23
2023/03/30 03:42:45;;;;;;;19.13;2.60;;;13.60;99.90;;;;;;10477019;28;20087;-24
2023/03/30 03:47:49;;;;;;;16.65;2.83;;;13.80;99.90;;;;;;10453377;28;20431;-24
2023/03/30 03:52:51;;;;;;;17.58;3.40;;;13.90;99.90;;;;;;10454709;28;20409;-24
2023/03/30 03:57:55;;;;;;;20.20;3.30;;;13.40;99.90;;;;;;10453585;28;20141;-25
2023/03/30 04:02:57;;;;;;;16.65;3.72;;;13.60;99.90;;;;;;10463080;28;20044;-25
2023/03/30 04:07:58;;;;;;;18.87;3.13;;;13.30;99.90;;;;;;10467225;28;20152;-25
2023/03/30 04:13:02;;;;;;;12.80;2.50;;;13.30;99.90;;;;;;10451047;28;20052;-23
2023/03/30 04:18:04;;;;;;;30.60;5.15;;;13.40;99.90;;;;;;10452523;28;20052;-24
2023/03/30 04:23:08;;;;;;;18.70;3.30;;;12.80;99.90;;;;;;10456575;28;20040;-24
2023/03/30 04:28:11;;;;;;;19.35;3.47;;;13.60;99.90;;;;;;10460297;28;20102;-25
2023/03/30 04:33:13;;;;;;;32.90;3.88;;;14.00;99.90;;;;;;10458415;28;20486;-24
2023/03/30 04:38:20;;;;;;;21.97;2.90;;;13.00;99.90;;;;;;10455344;28;20057;-24
2023/03/30 04:43:24;;;;;;;30.35;5.63;;;13.50;99.90;;;;;;10470701;28;20055;-24
2023/03/30 04:48:26;;;;;;;25.35;3.25;;;12.60;99.90;;;;;;10449222;28;20041;-24
2023/03/30 04:53:28;;;;;;;25.08;4.38;;;13.20;99.90;;;;;;10451027;28;20497;-25
2023/03/30 04:58:31;;;;;;;34.65;4.28;;;13.30;99.90;;;;;;10462800;28;20452;-25
2023/03/30 05:03:33;;;;;;;18.58;3.22;;;13.10;99.90;;;;;;10457438;28;20413;-25
2023/03/30 05:08:35;;;;;;;24.15;3.22;;;13.10;99.90;;;;;;10456988;28;20574;-24
2023/03/30 05:13:39;;;;;;;29.23;4.13;;;12.40;99.90;;;;;;10448627;28;20084;-24
2023/03/30 05:18:41;;;;;;;31.27;3.90;;;12.50;99.90;;;;;;10441227;28;20053;-24
2023/03/30 05:23:43;;;;;;;27.07;4.23;;;12.50;99.90;;;;;;10442559;28;20057;-25
2023/03/30 05:28:46;;;;;;;22.52;3.05;;;12.70;99.90;;;;;;10454719;28;20138;-24
2023/03/30 05:33:48;;;;;;;28.80;4.80;;;13.20;99.90;;;;;;10464656;28;20056;-23
2023/03/30 05:38:51;;;;;;;25.30;3.33;;;12.80;99.90;;;;;;10448052;28;20503;-25
2023/03/30 05:43:54;;;;;;;36.75;5.35;;;12.90;99.90;;;;;;10463566;28;20143;-24
2023/03/30 05:48:56;;;;;;;32.28;4.18;;;12.10;99.90;;;;;;10460985;28;20068;-24
2023/03/30 05:53:58;;;;;;;25.92;4.18;;;12.50;99.90;;;;;;10447863;28;20599;-25
2023/03/30 05:59:03;;;;;;;32.92;3.50;;;12.80;99.90;;;;;;10460171;28;20127;-27
2023/03/30 06:15:30;;;;;;;40.17;6.35;;;12.10;99.90;;;;;;10543459;27;20735;-26
2023/03/30 06:20:32;;;;;;;29.60;4.25;;;12.50;99.90;;;;;;10537760;28;20047;-24
2023/03/30 06:25:35;;;;;;;46.17;7.93;;;12.40;99.90;;;;;;10527306;28;20044;-27
2023/03/30 06:30:39;;;;;;;;;;;12.80;99.90;;;;;;10522992;28;20476;-24
2023/03/30 06:35:44;;;;;;;44.33;6.15;;;11.70;99.90;;;;;;10523301;28;20467;-25
2023/03/30 06:40:46;;;;;;;38.05;5.03;;;12.50;99.90;;;;;;10532716;28;20082;-23
2023/03/30 06:45:54;;;;;;;46.30;6.65;;;12.30;99.90;;;;;;10544738;28;20716;-24
2023/03/30 06:50:58;;;;;;;40.63;6.47;;;12.20;99.90;;;;;;10527977;28;20565;-24
2023/03/30 06:56:00;;;;;;;46.72;6.10;;;12.60;99.90;;;;;;10539295;28;20044;-24
2023/03/30 07:01:10;;;;;;;36.43;5.87;;;12.60;99.90;;;;;;10529807;28;20056;-25
2023/03/30 07:06:12;;;;;;;51.17;8.35;;;12.10;99.90;;;;;;10529400;28;20093;-24
2023/03/30 07:11:14;;;;;;;54.33;7.30;;;12.50;99.90;;;;;;10530131;28;20079;-24
2023/03/30 07:16:17;;;;;;;50.28;6.68;;;12.70;99.90;;;;;;10526552;28;20504;-25
2023/03/30 07:21:19;;;;;;;63.65;8.68;;;12.60;99.90;;;;;;10526440;28;20051;-24
2023/03/30 07:26:21;;;;;;;74.40;9.32;;;12.10;99.90;;;;;;10502536;28;20051;-25
2023/03/30 07:31:25;;;;;;;48.63;5.80;;;12.00;99.90;;;;;;10491461;28;20056;-25
2023/03/30 07:36:26;;;;;;;66.28;8.88;;;12.20;99.90;;;;;;10509999;28;20039;-24
2023/03/30 07:41:28;;;;;;;38.28;6.13;;;11.70;99.90;;;;;;10501374;28;20099;-25
2023/03/30 07:46:31;;;;;;;53.13;7.20;;;11.90;99.90;;;;;;10490863;28;20136;-23
2023/03/30 07:51:34;;;;;;;64.20;9.63;;;11.50;99.90;;;;;;10503910;28;20105;-25
2023/03/30 07:56:38;;;;;;;72.00;8.40;;;11.90;99.90;;;;;;10497599;28;20514;-24
2023/03/30 08:01:41;;;;;;;60.15;7.88;;;11.80;99.90;;;;;;10501084;28;20044;-25
2023/03/30 08:06:43;;;;;;;48.47;6.32;;;11.90;99.90;;;;;;10496195;28;20073;-24
2023/03/30 08:11:45;;;;;;;69.18;9.77;;;12.70;99.90;;;;;;10493974;28;20060;-24
2023/03/30 08:16:49;;;;;;;71.82;9.90;;;12.60;99.90;;;;;;10495621;28;20131;-24
2023/03/30 08:21:51;;;;;;;48.28;7.30;;;12.50;99.90;;;;;;10491631;28;20048;-24
2023/03/30 08:26:53;;;;;;;65.60;8.10;;;11.70;99.90;;;;;;10500785;28;20127;-25
2023/03/30 08:31:56;;;;;;;62.22;8.02;;;12.30;99.90;;;;;;10497921;28;20526;-25
2023/03/30 08:36:58;;;;;;;35.65;6.45;;;12.50;99.90;;;;;;10489091;28;20139;-23
2023/03/30 08:42:12;;;;;;;45.03;5.68;;;13.20;99.90;;;;;;10494198;28;20063;-25
2023/03/30 08:47:19;;;;;;;52.88;6.68;;;12.60;99.90;;;;;;10506401;28;20052;-24
2023/03/30 08:52:24;;;;;;;75.82;11.18;;;12.40;99.90;;;;;;10492762;28;20110;-24
2023/03/30 08:57:39;;;;;;;47.83;6.90;;;12.50;99.90;;;;;;10487362;28;20076;-24
2023/03/30 09:02:46;;;;;;;63.60;8.75;;;12.50;99.90;;;;;;10478969;28;20140;-24
2023/03/30 09:07:55;;;;;;;47.33;6.72;;;13.20;99.90;;;;;;10489876;28;20055;-24
2023/03/30 09:13:00;;;;;;;66.10;8.35;;;12.80;99.90;;;;;;10504560;28;20061;-24
2023/03/30 09:18:11;;;;;;;38.60;6.43;;;12.80;99.90;;;;;;10497113;28;20049;-22
2023/03/30 09:23:16;;;;;;;54.42;7.70;;;13.20;99.90;;;;;;10491131;28;20105;-24
2023/03/30 09:28:22;;;;;;;50.92;7.90;;;13.10;99.90;;;;;;10494252;28;20060;-23
2023/03/30 09:33:35;;;;;;;58.10;8.80;;;13.00;99.90;;;;;;10502498;28;20155;-24
2023/03/30 09:38:40;;;;;;;51.00;7.15;;;13.30;99.90;;;;;;10498833;28;20056;-25
2023/03/30 09:43:45;;;;;;;52.28;8.57;;;13.60;99.90;;;;;;10492922;28;20044;-25
2023/03/30 09:48:50;;;;;;;68.20;9.63;;;12.50;99.90;;;;;;10492714;28;20050;-24
2023/03/30 09:53:58;;;;;;;65.65;9.18;;;12.70;99.90;;;;;;10500911;28;20063;-25
2023/03/30 09:59:20;;;;;;;70.90;9.40;;;12.90;99.90;;;;;;10488411;28;20155;-25
2023/03/30 10:04:23;;;;;;;44.00;6.35;;;12.40;99.90;;;;;;10493402;28;20045;-26
2023/03/30 10:09:25;;;;;;;55.30;8.80;;;12.80;99.90;;;;;;10490901;28;20547;-26
2023/03/30 10:14:33;;;;;;;67.82;8.48;;;13.00;99.90;;;;;;10494104;28;20111;-24
2023/03/30 10:19:41;;;;;;;64.25;7.40;;;12.80;99.90;;;;;;10499492;28;20048;-24
2023/03/30 10:24:50;;;;;;;53.78;6.93;;;13.00;99.90;;;;;;10500209;28;20082;-27
2023/03/30 10:29:52;;;;;;;55.40;8.25;;;12.80;99.90;;;;;;10488612;28;20221;-24
2023/03/30 10:35:00;;;;;;;65.20;8.85;;;12.90;99.90;;;;;;10489501;28;20139;-25
2023/03/30 10:40:16;;;;;;;48.13;7.20;;;13.10;99.90;;;;;;10476927;28;20068;-25
2023/03/30 10:45:21;;;;;;;37.72;6.28;;;13.50;99.90;;;;;;10512102;28;20484;-24
2023/03/30 10:50:31;;;;;;;38.30;5.22;;;13.40;99.90;;;;;;10496305;28;20503;-25
2023/03/30 10:55:42;;;;;;;41.50;6.50;;;13.70;99.90;;;;;;10485449;28;20101;-25
2023/03/30 11:00:57;;;;;;;53.72;8.07;;;13.30;99.90;;;;;;10494098;28;20139;-25
2023/03/30 11:06:07;;;;;;;47.95;5.95;;;12.90;99.90;;;;;;10508515;28;20064;-28
2023/03/30 11:11:13;;;;;;;45.67;6.65;;;13.10;99.90;;;;;;10497495;28;20052;-25
2023/03/30 11:16:18;;;;;;;54.97;6.75;;;13.70;99.90;;;;;;10500816;28;20049;-25
2023/03/30 11:21:28;;;;;;;43.00;7.88;;;12.70;99.90;;;;;;10510140;28;20135;-25
2023/03/30 11:26:37;;;;;;;58.40;7.28;;;12.70;99.90;;;;;;10494665;28;20063;-25
2023/03/30 11:31:46;;;;;;;32.55;5.28;;;12.80;99.90;;;;;;10501933;28;20459;-25
2023/03/30 11:37:00;;;;;;;62.30;8.85;;;13.10;99.90;;;;;;10506572;28;20102;-25
2023/03/30 11:42:13;;;;;;;59.72;7.90;;;12.90;99.90;;;;;;10488441;28;20135;-24
2023/03/30 11:47:38;;;;;;;64.05;9.57;;;12.40;99.90;;;;;;10477815;28;20164;-25
2023/03/30 11:52:51;;;;;;;44.22;7.60;;;12.10;99.90;;;;;;10491445;28;20455;-22
2023/03/30 11:58:05;;;;;;;43.10;6.18;;;12.20;99.90;;;;;;10507301;28;20101;-25
2023/03/30 12:03:16;;;;;;;59.40;9.57;;;12.70;99.90;;;;;;10491675;28;20053;-25
2023/03/30 12:08:37;;;;;;;64.05;8.38;;;12.10;99.90;;;;;;10491544;28;20090;-25
2023/03/30 12:13:39;;;;;;;60.58;8.50;;;11.90;99.90;;;;;;10485451;28;20051;-24
2023/03/30 12:18:51;;;;;;;59.73;8.63;;;11.80;99.90;;;;;;10491699;28;20127;-23
2023/03/30 12:24:00;;;;;;;84.90;9.63;;;11.90;99.90;;;;;;10484804;28;20574;-25
2023/03/30 12:29:10;;;;;;;57.92;8.52;;;12.30;99.90;;;;;;10510577;28;20059;-24
2023/03/30 12:34:11;;;;;;;72.72;9.57;;;12.70;99.90;;;;;;10502534;28;20049;-23
2023/03/30 12:39:20;;;;;;;90.53;11.15;;;12.50;99.90;;;;;;10493027;28;20076;-25
2023/03/30 12:44:40;;;;;;;56.83;8.57;;;12.10;99.90;;;;;;10489919;28;20132;-24
2023/03/30 12:49:58;;;;;;;54.45;7.15;;;12.20;99.90;;;;;;10486037;28;20049;-24
2023/03/30 12:55:22;;;;;;;66.35;9.07;;;13.10;99.90;;;;;;10484478;28;20055;-24
2023/03/30 13:00:58;;;;;;;50.03;6.05;;;12.40;99.90;;;;;;10486026;28;20044;-24
2023/03/30 13:06:02;;;;;;;46.15;7.00;;;13.30;99.90;;;;;;10465692;28;20132;-24
2023/03/30 13:11:12;;;;;;;42.92;6.35;;;13.10;99.90;;;;;;10488477;28;20044;-24
2023/03/30 13:16:15;;;;;;;44.47;6.45;;;13.30;99.90;;;;;;10498722;28;20133;-23
2023/03/30 13:21:20;;;;;;;48.33;6.90;;;14.00;99.90;;;;;;10491957;28;20461;-27
2023/03/30 13:26:26;;;;;;;33.72;6.00;;;14.10;99.90;;;;;;10489925;28;20094;-24
2023/03/30 13:31:52;;;;;;;35.63;6.25;;;14.00;99.90;;;;;;10483324;28;20044;-24
2023/03/30 13:37:03;;;;;;;50.60;6.95;;;14.20;99.90;;;;;;10489810;28;20130;-26
2023/03/30 13:42:29;;;;;;;43.35;6.72;;;14.70;99.90;;;;;;10491634;28;20131;-24
2023/03/30 13:47:54;;;;;;;41.75;7.00;;;14.20;99.90;;;;;;10473372;28;20841;-24
2023/03/30 13:52:58;;;;;;;28.95;4.43;;;15.20;99.90;;;;;;10484025;28;20095;-25
2023/03/30 13:58:04;;;;;;;28.00;4.25;;;15.10;99.90;;;;;;10493146;28;20076;-24
2023/03/30 14:03:26;;;;;;;40.15;6.38;;;15.80;99.90;;;;;;10494205;28;20080;-25
2023/03/30 14:08:34;;;;;;;35.83;5.53;;;14.80;99.90;;;;;;10481039;28;20051;-24
2023/03/30 14:13:38;;;;;;;41.97;6.70;;;15.30;99.90;;;;;;10479552;28;20055;-24
2023/03/30 14:18:40;;;;;;;29.30;4.22;;;15.20;99.90;;;;;;10497685;28;20048;-24
2023/03/30 14:23:45;;;;;;;36.80;5.13;;;15.60;99.90;;;;;;10483712;28;20111;-24
2023/03/30 14:28:49;;;;;;;43.63;6.68;;;15.40;99.90;;;;;;10490470;28;20049;-25
2023/03/30 14:33:51;;;;;;;31.92;6.47;;;15.30;99.90;;;;;;10495203;28;20056;-24
2023/03/30 14:38:54;;;;;;;38.78;5.38;;;15.40;99.90;;;;;;10494239;28;20091;-26
2023/03/30 14:44:00;;;;;;;28.60;5.00;;;15.90;99.90;;;;;;10498364;28;20040;-25
2023/03/30 14:49:03;;;;;;;27.85;4.82;;;15.40;99.90;;;;;;10488115;28;20056;-24
2023/03/30 14:54:07;;;;;;;35.53;4.20;;;15.70;99.90;;;;;;10491505;28;20151;-24
2023/03/30 14:59:13;;;;;;;42.03;7.53;;;15.90;99.90;;;;;;10485752;28;20056;-25
2023/03/30 15:04:16;;;;;;;39.70;5.53;;;15.60;99.90;;;;;;10505084;28;20052;-25
2023/03/30 15:09:19;;;;;;;36.70;5.63;;;15.30;99.90;;;;;;10492163;28;20136;-25
2023/03/30 15:14:23;;;;;;;32.83;6.88;;;15.90;99.90;;;;;;10498800;28;20116;-26
2023/03/30 15:19:29;;;;;;;40.67;5.68;;;16.10;99.90;;;;;;10500029;28;20455;-25
2023/03/30 15:24:34;;;;;;;34.65;5.10;;;16.10;99.90;;;;;;10490862;28;20105;-24
2023/03/30 15:29:40;;;;;;;32.10;4.25;;;16.70;99.90;;;;;;10497830;28;20040;-25
2023/03/30 15:34:58;;;;;;;30.50;5.28;;;16.20;99.90;;;;;;10487778;28;20160;-24
2023/03/30 15:40:00;;;;;;;40.90;5.45;;;16.20;99.90;;;;;;10501595;28;20407;-25
2023/03/30 15:45:09;;;;;;;27.77;5.13;;;15.90;99.90;;;;;;10487067;28;20072;-25
2023/03/30 15:50:13;;;;;;;32.22;7.18;;;15.40;99.90;;;;;;10495672;28;20048;-24
2023/03/30 15:55:21;;;;;;;38.83;6.13;;;16.30;99.90;;;;;;10493808;28;20147;-24
2023/03/30 16:00:29;;;;;;;35.45;5.88;;;17.00;99.20;;;;;;10501417;28;20052;-23
2023/03/30 16:05:33;;;;;;;34.65;4.60;;;16.60;99.90;;;;;;10495358;28;20045;-23
2023/03/30 16:10:37;;;;;;;40.13;6.82;;;16.80;99.90;;;;;;10492086;28;20131;-24
2023/03/30 16:15:41;;;;;;;30.15;5.03;;;16.70;99.90;;;;;;10493359;28;20056;-24
2023/03/30 16:20:43;;;;;;;40.13;6.43;;;16.90;99.90;;;;;;10493325;28;20052;-24
2023/03/30 16:25:45;;;;;;;30.17;4.77;;;16.50;99.90;;;;;;10497712;28;20048;-24
2023/03/30 16:30:50;;;;;;;38.30;6.33;;;15.90;99.90;;;;;;10481942;28;20052;-24
2023/03/30 16:35:51;;;;;;;31.77;5.63;;;15.80;99.90;;;;;;10480684;28;20409;-25
2023/03/30 16:40:56;;;;;;;38.40;5.83;;;16.10;99.90;;;;;;10508607;28;20045;-24
2023/03/30 16:45:59;;;;;;;29.52;5.28;;;15.30;99.90;;;;;;10507207;28;20066;-26
2023/03/30 16:51:01;;;;;;;41.53;6.05;;;15.70;99.90;;;;;;10507298;28;20048;-25
2023/03/30 16:56:03;;;;;;;43.27;5.97;;;15.70;99.90;;;;;;10492076;28;20080;-25
2023/03/30 17:01:11;;;;;;;30.13;4.38;;;15.90;99.90;;;;;;10497525;28;20067;-25
2023/03/30 17:06:15;;;;;;;35.83;5.13;;;15.60;99.90;;;;;;10488784;28;20447;-25
2023/03/30 17:11:18;;;;;;;30.70;5.85;;;16.40;99.90;;;;;;10490463;28;20060;-24
2023/03/30 17:16:23;;;;;;;36.42;5.35;;;15.10;99.90;;;;;;10492041;28;20044;-24
2023/03/30 17:21:25;;;;;;;34.55;5.70;;;15.30;99.90;;;;;;10497895;28;20509;-25
2023/03/30 17:26:27;;;;;;;39.17;6.68;;;15.10;99.90;;;;;;10489965;28;20449;-25
2023/03/30 17:31:31;;;;;;;38.33;6.43;;;14.10;99.90;;;;;;10492715;28;20436;-26
2023/03/30 17:36:33;;;;;;;40.88;6.18;;;14.20;99.90;;;;;;10505124;28;20569;-24
2023/03/30 17:41:35;;;;;;;38.08;6.47;;;14.20;99.90;;;;;;10503220;28;20075;-25
2023/03/30 17:46:38;;;;;;;37.37;5.53;;;13.90;99.90;;;;;;10504439;28;20044;-25
2023/03/30 17:51:40;;;;;;;41.35;5.28;;;13.70;99.90;;;;;;10506182;28;20124;-24
2023/03/30 17:56:42;;;;;;;51.28;6.82;;;13.40;99.90;;;;;;10493556;28;20172;-25
2023/03/30 18:01:45;;;;;;;53.50;7.35;;;12.80;99.90;;;;;;10497350;28;20760;-24
2023/03/30 18:06:47;;;;;;;62.00;8.50;;;13.10;99.90;;;;;;10497069;28;20485;-29
2023/03/30 18:11:49;;;;;;;57.43;7.17;;;12.30;99.90;;;;;;10492386;28;20056;-25
2023/03/30 18:16:52;;;;;;;50.13;6.40;;;12.50;99.90;;;;;;10493669;28;20495;-26
2023/03/30 18:21:54;;;;;;;60.33;7.30;;;12.30;99.90;;;;;;10505458;28;20072;-25
2023/03/30 18:26:56;;;;;;;46.42;6.07;;;12.80;99.90;;;;;;10505482;28;20047;-25
2023/03/30 18:31:59;;;;;;;51.30;7.32;;;12.20;99.90;;;;;;10487549;28;20516;-22
2023/03/30 18:37:01;;;;;;;51.50;7.40;;;11.90;99.90;;;;;;10485013;28;20109;-25
2023/03/30 18:42:03;;;;;;;49.67;5.35;;;12.40;99.90;;;;;;10497808;28;20131;-27
2023/03/30 18:47:09;;;;;;;42.50;6.53;;;12.30;99.90;;;;;;10491816;28;20572;-26
2023/03/30 18:52:11;;;;;;;39.65;5.43;;;12.50;99.90;;;;;;10486761;28;20040;-24
2023/03/30 18:57:13;;;;;;;55.63;8.80;;;12.30;99.90;;;;;;10476127;28;20163;-25
2023/03/30 19:02:16;;;;;;;38.70;5.27;;;12.20;99.90;;;;;;10478628;28;20059;-25
2023/03/30 19:07:18;;;;;;;27.02;4.72;;;12.30;99.90;;;;;;10477325;28;20093;-24
2023/03/30 19:12:20;;;;;;;40.10;5.22;;;13.20;99.90;;;;;;10496858;28;20519;-28
2023/03/30 19:17:23;;;;;;;35.80;6.78;;;12.90;99.90;;;;;;10490525;28;20097;-24
2023/03/30 19:22:25;;;;;;;41.70;7.35;;;12.40;99.90;;;;;;10497982;28;20183;-23
2023/03/30 19:27:27;;;;;;;44.35;7.45;;;12.40;99.90;;;;;;10509106;28;20536;-26
2023/03/30 19:32:30;;;;;;;34.67;5.67;;;11.90;99.90;;;;;;10491953;28;20076;-25
2023/03/30 19:37:32;;;;;;;30.25;5.13;;;12.10;99.90;;;;;;10498452;28;20084;-24
2023/03/30 19:42:35;;;;;;;34.33;4.95;;;12.10;99.90;;;;;;10497787;28;20054;-26
2023/03/30 19:47:38;;;;;;;39.65;5.53;;;12.20;99.90;;;;;;10496106;28;20052;-25
2023/03/30 19:52:40;;;;;;;45.30;5.80;;;12.50;99.90;;;;;;10507406;28;20156;-24
2023/03/30 19:57:42;;;;;;;33.30;5.43;;;11.90;99.90;;;;;;10494845;28;20056;-25
2023/03/30 20:02:47;;;;;;;49.90;7.20;;;12.30;99.90;;;;;;10492968;28;20060;-24
2023/03/30 20:07:50;;;;;;;45.05;4.80;;;11.70;99.90;;;;;;10498236;28;20719;-25
2023/03/30 20:12:53;;;;;;;33.10;5.50;;;11.80;99.90;;;;;;10492388;28;20775;-25
2023/03/30 20:17:58;;;;;;;39.05;6.13;;;12.70;99.90;;;;;;10496136;28;20123;-24
2023/03/30 20:23:00;;;;;;;42.38;5.82;;;12.40;99.90;;;;;;10489648;28;20463;-26
2023/03/30 20:28:02;;;;;;;24.25;3.42;;;12.40;99.90;;;;;;10509477;28;20113;-26
2023/03/30 20:33:07;;;;;;;30.08;4.93;;;12.30;99.90;;;;;;10504099;28;20075;-25
2023/03/30 20:38:09;;;;;;;49.80;5.68;;;12.20;99.90;;;;;;10489434;28;20425;-25
2023/03/30 20:43:11;;;;;;;40.60;5.00;;;12.10;99.90;;;;;;10497955;28;20124;-24
2023/03/30 20:48:24;;;;;;;48.83;5.00;;;12.10;99.90;;;;;;10474813;28;20117;-24
2023/03/30 20:53:26;;;;;;;39.92;5.70;;;12.20;99.90;;;;;;10501114;28;20048;-25
2023/03/30 20:58:29;;;;;;;42.30;5.85;;;11.70;99.90;;;;;;10494372;28;20141;-25
2023/03/30 21:03:34;;;;;;;37.13;5.95;;;12.20;99.90;;;;;;10481905;28;20068;-27
2023/03/30 21:08:36;;;;;;;23.75;4.18;;;12.30;99.90;;;;;;10496533;28;20672;-26
2023/03/30 21:13:37;;;;;;;30.33;4.83;;;12.10;99.90;;;;;;10497311;28;20133;-24
2023/03/30 21:18:41;;;;;;;26.80;3.78;;;12.20;99.90;;;;;;10498418;28;20056;-27
2023/03/30 21:23:43;;;;;;;47.03;6.38;;;12.40;99.90;;;;;;10500015;28;20044;-25
2023/03/30 21:28:45;;;;;;;41.72;4.53;;;11.90;99.90;;;;;;10478068;28;20392;-24
2023/03/30 21:33:49;;;;;;;30.30;3.67;;;11.80;99.90;;;;;;10503495;28;20083;-25
2023/03/30 21:38:51;;;;;;;37.03;4.25;;;12.10;99.90;;;;;;10507703;28;20044;-25
2023/03/30 21:43:53;;;;;;;23.58;3.45;;;12.00;99.90;;;;;;10483342;28;20495;-25
2023/03/30 21:48:56;;;;;;;31.02;4.25;;;12.20;99.90;;;;;;10476686;28;20463;-27
2023/03/30 21:53:59;;;;;;;34.40;5.00;;;11.70;99.90;;;;;;10491815;28;20049;-25
2023/03/30 21:59:01;;;;;;;22.95;4.00;;;11.90;99.90;;;;;;10495269;28;20059;-24
2023/03/30 22:04:05;;;;;;;43.80;5.40;;;12.20;99.90;;;;;;10505048;28;20742;-25
2023/03/30 22:09:07;;;;;;;33.05;6.75;;;12.20;99.90;;;;;;10502245;28;20040;-25
2023/03/30 22:14:09;;;;;;;24.90;3.50;;;11.80;99.90;;;;;;10501139;28;20136;-25
2023/03/30 22:19:12;;;;;;;15.68;3.30;;;11.80;99.90;;;;;;10487538;28;20041;-28
2023/03/30 22:24:14;;;;;;;24.60;3.20;;;13.40;99.90;;;;;;10485443;28;20127;-26
2023/03/30 22:29:19;;;;;;;30.53;4.43;;;13.00;99.90;;;;;;10491437;28;20040;-25
2023/03/30 22:34:22;;;;;;;22.13;3.30;;;11.80;99.90;;;;;;10478034;28;20127;-25
2023/03/30 22:39:24;;;;;;;29.10;3.53;;;12.70;99.90;;;;;;10488406;28;20132;-24
2023/03/30 22:44:27;;;;;;;23.42;3.65;;;12.10;99.90;;;;;;10502214;28;20044;-24
2023/03/30 22:49:30;;;;;;;21.38;3.53;;;12.10;99.90;;;;;;10504382;28;20067;-24
2023/03/30 22:54:32;;;;;;;28.98;3.75;;;12.00;99.90;;;;;;10502865;28;20469;-25
2023/03/30 22:59:34;;;;;;;34.25;4.15;;;11.90;99.90;;;;;;10510105;28;20079;-25
2023/03/30 23:04:38;;;;;;;8.93;3.67;;;13.10;99.90;;;;;;10504116;28;20103;-25
2023/03/30 23:09:46;;;;;;;27.17;3.90;;;12.90;99.90;;;;;;10513246;28;20139;-25
2023/03/30 23:14:47;;;;;;;21.33;3.25;;;13.60;99.90;;;;;;10524418;28;20065;-24
2023/03/30 23:19:52;;;;;;;14.32;4.72;;;14.10;99.90;;;;;;10520246;28;20095;-25
2023/03/30 23:24:54;;;;;;;10.23;4.63;;;15.80;99.90;;;;;;10519947;28;20055;-25
2023/03/30 23:29:56;;;;;;;19.33;4.77;;;16.10;99.90;;;;;;10521005;28;20079;-24
2023/03/30 23:35:00;;;;;;;14.03;4.30;;;15.70;99.90;;;;;;10515612;28;20059;-24
2023/03/30 23:40:06;;;;;;;12.93;5.18;;;15.90;99.90;;;;;;10523439;28;20478;-23
2023/03/30 23:45:08;;;;;;;13.50;5.43;;;16.60;99.90;;;;;;10516076;28;20516;-24
2023/03/30 23:50:12;;;;;;;12.23;4.70;;;16.80;99.90;;;;;;10511376;28;20172;-25
2023/03/30 23:55:14;;;;;;;14.95;4.72;;;16.70;99.90;;;;;;10513950;28;20059;-25
